Time;durP1;ratioP1;P1;durP2;ratioP2;P2;SDS_P1;SDS_P2;PMS_P1;PMS_P2;Temp;Humidity;BMP_temperature;BMP_pressure;BME280_temperature;BME280_humidity;BME280_pressure;Samples;Min_cycle;Max_cycle;Signal;HPM_P1;HPM_P2
2022/02/18 00:00:41;;;;;;;;;23.00;20.67;;;;;;;;5142144;27;11401;-77
2022/02/18 00:03:07;;;;;;;;;20.33;16.00;;;;;;;;5141451;27;11845;-78
2022/02/18 00:05:32;;;;;;;;;26.33;26.00;;;;;;;;5141975;27;12369;-78
2022/02/18 00:08:00;;;;;;;;;27.00;20.67;;;;;;;;5141544;27;9513;-78
2022/02/18 00:10:25;;;;;;;;;29.33;22.33;;;;;;;;5123058;27;11534;-78
2022/02/18 00:12:50;;;;;;;;;30.67;27.00;;;;;;;;5141641;27;11583;-78
2022/02/18 00:15:16;;;;;;;;;26.33;24.67;;;;;;;;5141375;27;13284;-78
2022/02/18 00:17:41;;;;;;;;;29.33;26.00;;;;;;;;5122605;27;16795;-78
2022/02/18 00:20:07;;;;;;;;;26.33;22.67;;;;;;;;5141315;27;11381;-78
2022/02/18 00:22:32;;;;;;;;;26.67;25.67;;;;;;;;5141384;27;11590;-77
2022/02/18 00:24:58;;;;;;;;;28.33;24.33;;;;;;;;5141053;27;10297;-78
2022/02/18 00:27:23;;;;;;;;;26.67;21.33;;;;;;;;5141577;27;11367;-78
2022/02/18 00:29:48;;;;;;;;;30.67;25.33;;;;;;;;5142164;27;10942;-79
2022/02/18 00:32:13;;;;;;;;;25.00;20.33;;;;;;;;5141508;27;10588;-78
2022/02/18 00:34:39;;;;;;;;;23.67;23.67;;;;;;;;5140882;27;13561;-79
2022/02/18 00:37:05;;;;;;;;;28.33;19.67;;;;;;;;5141406;27;12096;-78
2022/02/18 00:39:30;;;;;;;;;21.67;20.67;;;;;;;;5141550;27;12689;-78
2022/02/18 00:41:56;;;;;;;;;18.67;18.67;;;;;;;;5141285;27;11426;-79
2022/02/18 00:44:21;;;;;;;;;29.33;24.33;;;;;;;;5141089;27;10495;-78
2022/02/18 00:46:48;;;;;;;;;25.33;19.67;;;;;;;;5140577;27;13405;-79
2022/02/18 00:49:15;;;;;;;;;24.33;18.67;;;;;;;;5141429;27;12828;-80
2022/02/18 00:51:40;;;;;;;;;23.67;21.00;;;;;;;;5141452;27;9083;-80
2022/02/18 00:54:06;;;;;;;;;26.00;23.00;;;;;;;;5141039;27;13503;-79
2022/02/18 00:56:32;;;;;;;;;23.67;21.00;;;;;;;;5140033;27;10362;-79
2022/02/18 00:59:00;;;;;;;;;19.33;18.67;;;;;;;;5141367;27;10404;-79
2022/02/18 01:01:25;;;;;;;;;27.67;21.00;;;;;;;;5140630;27;13799;-79
2022/02/18 01:03:50;;;;;;;;;22.00;19.00;;;;;;;;5140810;27;13260;-79
2022/02/18 01:06:16;;;;;;;;;31.00;23.33;;;;;;;;5140778;27;11461;-77
2022/02/18 01:08:41;;;;;;;;;22.33;21.67;;;;;;;;5140397;27;13469;-79
2022/02/18 01:11:06;;;;;;;;;21.00;18.67;;;;;;;;5140207;27;13388;-79
2022/02/18 01:13:32;;;;;;;;;24.67;23.33;;;;;;;;5140747;27;11368;-79
2022/02/18 01:15:57;;;;;;;;;17.33;17.33;;;;;;;;5140662;27;12598;-79
2022/02/18 01:18:22;;;;;;;;;19.00;18.00;;;;;;;;5141202;27;12306;-79
2022/02/18 01:20:48;;;;;;;;;21.33;20.33;;;;;;;;5122575;27;13392;-79
2022/02/18 01:23:13;;;;;;;;;21.33;18.00;;;;;;;;5140680;27;14298;-78
2022/02/18 01:25:39;;;;;;;;;22.67;18.33;;;;;;;;5140952;27;10185;-78
2022/02/18 01:28:04;;;;;;;;;21.00;20.33;;;;;;;;5140917;27;11351;-78
2022/02/18 01:30:30;;;;;;;;;24.67;20.33;;;;;;;;5140299;27;11870;-78
2022/02/18 01:32:55;;;;;;;;;21.33;18.67;;;;;;;;5140266;27;9738;-74
2022/02/18 01:35:20;;;;;;;;;17.67;14.67;;;;;;;;5121697;27;12539;-77
2022/02/18 01:37:48;;;;;;;;;22.67;21.33;;;;;;;;5140212;27;13386;-78
2022/02/18 01:40:14;;;;;;;;;21.33;18.00;;;;;;;;5121356;27;15169;-77
2022/02/18 01:42:40;;;;;;;;;20.33;20.33;;;;;;;;5140315;27;12357;-75
2022/02/18 01:45:06;;;;;;;;;21.33;18.00;;;;;;;;5140277;27;12265;-76
2022/02/18 01:47:32;;;;;;;;;23.33;17.67;;;;;;;;5140262;27;13738;-77
2022/02/18 01:49:58;;;;;;;;;17.33;17.33;;;;;;;;5140224;27;11359;-76
2022/02/18 01:52:28;;;;;;;;;20.67;18.33;;;;;;;;5140410;27;14600;-82
2022/02/18 01:54:54;;;;;;;;;20.67;18.00;;;;;;;;5140257;27;12279;-78
2022/02/18 01:57:22;;;;;;;;;17.67;17.67;;;;;;;;5121894;27;8924;-78
2022/02/18 01:59:47;;;;;;;;;20.00;18.00;;;;;;;;5140489;27;13349;-78
2022/02/18 02:02:12;;;;;;;;;14.67;14.33;;;;;;;;5140811;27;13264;-78
2022/02/18 02:04:38;;;;;;;;;15.00;15.00;;;;;;;;5140182;27;13804;-78
2022/02/18 02:07:04;;;;;;;;;19.33;17.00;;;;;;;;5140155;27;11538;-79
2022/02/18 02:09:30;;;;;;;;;23.00;17.67;;;;;;;;5139764;27;10607;-79
2022/02/18 02:11:55;;;;;;;;;23.00;21.00;;;;;;;;5139320;27;13435;-79
2022/02/18 02:14:20;;;;;;;;;18.00;18.00;;;;;;;;5120996;27;11021;-77
2022/02/18 02:16:48;;;;;;;;;22.33;18.33;;;;;;;;5139504;27;10336;-78
2022/02/18 02:19:13;;;;;;;;;20.33;16.67;;;;;;;;5140480;27;13483;-78
2022/02/18 02:21:45;;;;;;;;;21.67;16.67;;;;;;;;5139885;27;11383;-78
2022/02/18 02:24:12;;;;;;;;;23.67;17.33;;;;;;;;5140089;27;8913;-77
2022/02/18 02:26:38;;;;;;;;;26.00;21.67;;;;;;;;5140423;27;11455;-79
2022/02/18 02:29:04;;;;;;;;;17.33;14.67;;;;;;;;5140294;27;12448;-79
2022/02/18 02:31:29;;;;;;;;;19.00;17.00;;;;;;;;5139561;27;12612;-78
2022/02/18 02:33:55;;;;;;;;;21.67;19.33;;;;;;;;5120761;27;11721;-78
2022/02/18 02:36:21;;;;;;;;;17.00;16.00;;;;;;;;5139684;27;13606;-77
2022/02/18 02:38:48;;;;;;;;;20.00;17.00;;;;;;;;5139225;27;13310;-78
2022/02/18 02:41:13;;;;;;;;;20.67;17.00;;;;;;;;5139592;27;10606;-77
2022/02/18 02:43:38;;;;;;;;;20.33;16.00;;;;;;;;5139961;27;8813;-77
2022/02/18 02:46:04;;;;;;;;;15.33;14.00;;;;;;;;5139999;27;9556;-77
2022/02/18 02:48:29;;;;;;;;;14.00;14.00;;;;;;;;5139540;27;10696;-77
2022/02/18 02:50:54;;;;;;;;;18.33;14.67;;;;;;;;5139652;27;8854;-77
2022/02/18 02:53:20;;;;;;;;;16.67;15.33;;;;;;;;5139256;27;11630;-77
2022/02/18 02:55:45;;;;;;;;;17.00;14.00;;;;;;;;5139176;27;11354;-77
2022/02/18 02:58:10;;;;;;;;;17.00;14.00;;;;;;;;5138832;27;11718;-77
2022/02/18 03:00:36;;;;;;;;;14.33;14.33;;;;;;;;5138946;27;8778;-77
2022/02/18 03:03:01;;;;;;;;;13.00;13.00;;;;;;;;5139075;27;11885;-77
2022/02/18 03:05:26;;;;;;;;;17.00;15.33;;;;;;;;5138505;27;11577;-77
2022/02/18 03:07:51;;;;;;;;;19.33;16.33;;;;;;;;5139696;27;11515;-77
2022/02/18 03:10:17;;;;;;;;;18.33;17.33;;;;;;;;5120796;27;10697;-76
2022/02/18 03:12:42;;;;;;;;;13.00;13.00;;;;;;;;5139610;27;8820;-77
2022/02/18 03:15:08;;;;;;;;;13.00;13.00;;;;;;;;5139091;27;12857;-76
2022/02/18 03:17:33;;;;;;;;;14.00;13.00;;;;;;;;5120615;27;8798;-77
2022/02/18 03:19:59;;;;;;;;;17.00;14.67;;;;;;;;5140315;27;8790;-77
2022/02/18 03:22:24;;;;;;;;;14.67;14.00;;;;;;;;5142549;27;11591;-77
2022/02/18 03:24:49;;;;;;;;;20.00;14.00;;;;;;;;5142505;27;11344;-77
2022/02/18 03:27:14;;;;;;;;;14.33;13.00;;;;;;;;5141927;27;11280;-77
2022/02/18 03:29:40;;;;;;;;;14.00;13.00;;;;;;;;5142255;27;12191;-78
2022/02/18 03:32:06;;;;;;;;;14.33;13.67;;;;;;;;5141868;27;8806;-77
2022/02/18 03:34:31;;;;;;;;;13.67;12.33;;;;;;;;5142147;27;8918;-78
2022/02/18 03:36:57;;;;;;;;;15.00;13.00;;;;;;;;5142125;27;11629;-79
2022/02/18 03:39:25;;;;;;;;;18.67;11.00;;;;;;;;5142461;27;11487;-78
2022/02/18 03:41:50;;;;;;;;;19.00;15.33;;;;;;;;5142478;27;10531;-78
2022/02/18 03:44:16;;;;;;;;;16.33;15.67;;;;;;;;5122944;27;12054;-78
2022/02/18 03:46:41;;;;;;;;;18.67;14.00;;;;;;;;5141997;27;11378;-78
2022/02/18 03:49:06;;;;;;;;;17.00;14.00;;;;;;;;5142365;27;11380;-78
2022/02/18 03:51:32;;;;;;;;;14.00;13.00;;;;;;;;5142538;27;10249;-77
2022/02/18 03:53:57;;;;;;;;;17.00;16.00;;;;;;;;5142326;27;10259;-77
2022/02/18 03:56:22;;;;;;;;;21.67;17.00;;;;;;;;5142459;27;8798;-76
2022/02/18 03:58:48;;;;;;;;;14.33;14.33;;;;;;;;5142057;27;12175;-77
2022/02/18 04:01:13;;;;;;;;;13.00;13.00;;;;;;;;5141540;27;14736;-77
2022/02/18 04:03:39;;;;;;;;;17.00;13.00;;;;;;;;5141080;27;11811;-77
2022/02/18 04:06:05;;;;;;;;;21.00;17.00;;;;;;;;5141298;27;8797;-78
2022/02/18 04:08:30;;;;;;;;;14.00;14.00;;;;;;;;5141724;27;11051;-78
2022/02/18 04:10:55;;;;;;;;;21.33;16.67;;;;;;;;5122384;27;13029;-77
2022/02/18 04:13:21;;;;;;;;;20.00;16.00;;;;;;;;5141472;27;13824;-78
2022/02/18 04:15:46;;;;;;;;;19.67;16.00;;;;;;;;5141281;27;11412;-77
2022/02/18 04:18:11;;;;;;;;;16.00;13.33;;;;;;;;5141146;27;10377;-77
2022/02/18 04:20:37;;;;;;;;;17.67;17.67;;;;;;;;5141704;27;12852;-79
2022/02/18 04:23:02;;;;;;;;;19.00;13.00;;;;;;;;5141958;27;11540;-78
2022/02/18 04:25:28;;;;;;;;;17.33;14.00;;;;;;;;5142500;27;11452;-78
2022/02/18 04:27:54;;;;;;;;;13.00;11.67;;;;;;;;5142135;27;10360;-79
2022/02/18 04:30:20;;;;;;;;;14.67;13.00;;;;;;;;5141911;27;11580;-78
2022/02/18 04:32:45;;;;;;;;;13.33;11.67;;;;;;;;5145930;27;11377;-78
2022/02/18 04:35:13;;;;;;;;;15.33;13.00;;;;;;;;5151162;27;11547;-78
2022/02/18 04:37:38;;;;;;;;;15.33;11.67;;;;;;;;5152224;27;11623;-79
2022/02/18 04:40:04;;;;;;;;;14.00;13.00;;;;;;;;5152140;27;8848;-77
2022/02/18 04:42:29;;;;;;;;;17.00;14.00;;;;;;;;5149908;27;11569;-77
2022/02/18 04:44:55;;;;;;;;;18.00;16.33;;;;;;;;5149634;27;8978;-77
2022/02/18 04:47:20;;;;;;;;;15.33;11.00;;;;;;;;5151543;27;11566;-77
2022/02/18 04:49:51;;;;;;;;;21.33;18.33;;;;;;;;5148735;27;11583;-78
2022/02/18 04:52:16;;;;;;;;;20.00;14.00;;;;;;;;5131965;27;16190;-76
2022/02/18 04:54:42;;;;;;;;;23.00;18.33;;;;;;;;5148599;27;11584;-77
2022/02/18 04:57:08;;;;;;;;;17.67;15.33;;;;;;;;5150853;27;12625;-76
2022/02/18 04:59:33;;;;;;;;;13.00;13.00;;;;;;;;5150668;27;12775;-74
2022/02/18 05:01:58;;;;;;;;;22.67;19.67;;;;;;;;5148744;27;11382;-76
2022/02/18 05:04:24;;;;;;;;;13.00;11.00;;;;;;;;5131652;27;15053;-74
2022/02/18 05:06:50;;;;;;;;;14.00;14.00;;;;;;;;5149537;27;13355;-78
2022/02/18 05:09:15;;;;;;;;;12.33;12.33;;;;;;;;5148659;27;9555;-74
2022/02/18 05:11:40;;;;;;;;;14.67;14.67;;;;;;;;5150927;27;11470;-73
2022/02/18 05:14:06;;;;;;;;;24.33;18.00;;;;;;;;5148966;27;11435;-74
2022/02/18 05:16:31;;;;;;;;;17.00;13.00;;;;;;;;5149623;27;13250;-74
2022/02/18 05:18:58;;;;;;;;;13.67;13.67;;;;;;;;5150568;27;12607;-73
2022/02/18 05:21:23;;;;;;;;;19.00;16.00;;;;;;;;5155375;27;11633;-75
2022/02/18 05:23:48;;;;;;;;;16.00;14.00;;;;;;;;5147960;27;11366;-76
2022/02/18 05:26:15;;;;;;;;;10.67;10.33;;;;;;;;5130959;27;9337;-73
2022/02/18 05:28:40;;;;;;;;;17.00;17.00;;;;;;;;5148840;27;11020;-73
2022/02/18 05:31:05;;;;;;;;;16.67;15.33;;;;;;;;5149890;27;11366;-72
2022/02/18 05:33:30;;;;;;;;;17.33;11.00;;;;;;;;5128714;27;13974;-75
2022/02/18 05:35:56;;;;;;;;;17.67;14.67;;;;;;;;5147670;27;11700;-74
2022/02/18 05:38:21;;;;;;;;;17.00;16.00;;;;;;;;5151393;27;10494;-74
2022/02/18 05:40:46;;;;;;;;;17.67;13.33;;;;;;;;5151136;27;10768;-74
2022/02/18 05:43:11;;;;;;;;;17.00;17.00;;;;;;;;5148832;27;10337;-76
2022/02/18 05:45:37;;;;;;;;;15.67;15.67;;;;;;;;5150487;27;10535;-75
2022/02/18 05:48:02;;;;;;;;;21.33;17.67;;;;;;;;5150770;27;13283;-77
2022/02/18 05:50:27;;;;;;;;;14.00;14.00;;;;;;;;5149409;27;12368;-73
2022/02/18 05:52:54;;;;;;;;;26.67;19.67;;;;;;;;5147267;27;14561;-72
2022/02/18 05:55:19;;;;;;;;;14.67;14.67;;;;;;;;5149369;27;13301;-72
2022/02/18 05:57:45;;;;;;;;;19.33;17.00;;;;;;;;5147828;27;10784;-75
2022/02/18 06:00:10;;;;;;;;;18.67;16.67;;;;;;;;5149324;27;11765;-75
2022/02/18 06:02:36;;;;;;;;;18.33;17.33;;;;;;;;5149627;27;11613;-76
2022/02/18 06:05:04;;;;;;;;;17.67;14.00;;;;;;;;5147968;27;10529;-74
2022/02/18 06:07:29;;;;;;;;;20.00;17.00;;;;;;;;5148152;27;11752;-74
2022/02/18 06:09:55;;;;;;;;;21.33;15.33;;;;;;;;5130177;27;14068;-75
2022/02/18 06:12:20;;;;;;;;;8.33;7.33;;;;;;;;5147931;27;11362;-74
2022/02/18 06:14:49;;;;;;;;;21.33;19.67;;;;;;;;5151181;27;23587;-74
2022/02/18 06:17:15;;;;;;;;;17.67;16.00;;;;;;;;5129857;27;23235;-75
2022/02/18 06:19:40;;;;;;;;;25.67;19.67;;;;;;;;5149638;27;13278;-73
2022/02/18 06:22:06;;;;;;;;;16.33;16.33;;;;;;;;5147183;27;13278;-76
2022/02/18 06:24:31;;;;;;;;;17.00;16.00;;;;;;;;5149275;27;13360;-74
2022/02/18 06:26:56;;;;;;;;;22.00;21.33;;;;;;;;5147424;27;12835;-74
2022/02/18 06:29:22;;;;;;;;;23.67;19.33;;;;;;;;5130226;27;15351;-74
2022/02/18 06:31:47;;;;;;;;;21.67;17.67;;;;;;;;5148497;27;11891;-75
2022/02/18 06:34:12;;;;;;;;;16.67;14.67;;;;;;;;5147175;27;11504;-73
2022/02/18 06:36:38;;;;;;;;;8.00;7.00;;;;;;;;5149448;27;11120;-78
2022/02/18 06:39:05;;;;;;;;;22.67;19.33;;;;;;;;5147809;27;22762;-73
2022/02/18 06:41:32;;;;;;;;;20.00;19.00;;;;;;;;5146835;27;24268;-73
2022/02/18 06:43:57;;;;;;;;;16.33;16.33;;;;;;;;5149882;27;11458;-75
2022/02/18 06:46:23;;;;;;;;;25.00;20.67;;;;;;;;5147541;27;13234;-71
2022/02/18 06:48:48;;;;;;;;;21.33;17.67;;;;;;;;5147523;27;13533;-74
2022/02/18 06:51:14;;;;;;;;;23.67;16.67;;;;;;;;5159900;27;11541;-74
2022/02/18 06:53:39;;;;;;;;;33.33;24.00;;;;;;;;5141127;27;10713;-73
2022/02/18 06:56:05;;;;;;;;;25.67;22.67;;;;;;;;5144079;27;15435;-73
2022/02/18 06:58:30;;;;;;;;;23.33;22.00;;;;;;;;5163484;27;13468;-80
2022/02/18 07:00:55;;;;;;;;;20.33;19.33;;;;;;;;5163661;27;11575;-75
2022/02/18 07:03:21;;;;;;;;;17.00;14.00;;;;;;;;5162922;27;12363;-75
2022/02/18 07:05:48;;;;;;;;;23.00;19.33;;;;;;;;5141670;27;13732;-74
2022/02/18 07:08:14;;;;;;;;;32.00;24.33;;;;;;;;5151750;27;13701;-74
2022/02/18 07:10:40;;;;;;;;;24.67;22.00;;;;;;;;5143148;27;10647;-74
2022/02/18 07:13:06;;;;;;;;;21.33;20.00;;;;;;;;5142468;27;14662;-73
2022/02/18 07:15:31;;;;;;;;;19.67;17.00;;;;;;;;5142853;27;10349;-74
2022/02/18 07:18:01;;;;;;;;;22.67;22.00;;;;;;;;5142342;27;12152;-74
2022/02/18 07:20:26;;;;;;;;;23.00;17.00;;;;;;;;5157681;27;10622;-75
2022/02/18 07:22:51;;;;;;;;;20.00;17.67;;;;;;;;5162687;27;11942;-73
2022/02/18 07:25:18;;;;;;;;;24.67;21.67;;;;;;;;5162974;27;11360;-74
2022/02/18 07:27:44;;;;;;;;;22.33;20.67;;;;;;;;5163131;27;11507;-74
2022/02/18 07:30:11;;;;;;;;;21.67;19.00;;;;;;;;5163223;27;12076;-74
2022/02/18 07:32:37;;;;;;;;;21.67;19.67;;;;;;;;5162199;27;12333;-74
2022/02/18 07:35:02;;;;;;;;;18.67;18.67;;;;;;;;5162373;27;8804;-74
2022/02/18 07:37:27;;;;;;;;;27.00;20.33;;;;;;;;5162766;27;10555;-74
2022/02/18 07:39:53;;;;;;;;;20.33;17.67;;;;;;;;5161872;27;14672;-74
2022/02/18 07:42:18;;;;;;;;;20.67;20.00;;;;;;;;5161247;27;13824;-73
2022/02/18 07:44:43;;;;;;;;;24.00;20.00;;;;;;;;5162574;27;12428;-73
2022/02/18 07:47:09;;;;;;;;;28.00;23.33;;;;;;;;5162854;27;9026;-73
2022/02/18 07:49:34;;;;;;;;;24.33;18.67;;;;;;;;5160335;27;11458;-75
2022/02/18 07:52:02;;;;;;;;;21.00;20.00;;;;;;;;5161496;27;12501;-74
2022/02/18 07:54:28;;;;;;;;;23.00;20.00;;;;;;;;5161547;27;12844;-74
2022/02/18 07:56:53;;;;;;;;;16.00;13.67;;;;;;;;5160528;27;8801;-76
2022/02/18 07:59:18;;;;;;;;;25.33;23.00;;;;;;;;5161662;27;13331;-78
2022/02/18 08:01:43;;;;;;;;;26.33;21.67;;;;;;;;5161595;27;13205;-76
2022/02/18 08:04:09;;;;;;;;;26.67;26.67;;;;;;;;5161224;27;11387;-77
2022/02/18 08:06:34;;;;;;;;;21.00;20.00;;;;;;;;5158707;27;9524;-76
2022/02/18 08:09:00;;;;;;;;;20.00;18.00;;;;;;;;5151372;27;11619;-75
2022/02/18 08:11:25;;;;;;;;;23.33;22.00;;;;;;;;5141455;27;9625;-76
2022/02/18 08:13:51;;;;;;;;;24.00;22.67;;;;;;;;5141281;27;11381;-77
2022/02/18 08:16:16;;;;;;;;;22.33;21.33;;;;;;;;5141041;27;12023;-75
2022/02/18 08:18:43;;;;;;;;;21.00;18.00;;;;;;;;5140579;27;11768;-76
2022/02/18 08:21:09;;;;;;;;;37.67;32.00;;;;;;;;5140601;27;12564;-76
2022/02/18 08:23:34;;;;;;;;;39.33;28.67;;;;;;;;5140341;27;12779;-77
2022/02/18 08:25:59;;;;;;;;;22.67;21.33;;;;;;;;5140255;27;12170;-75
2022/02/18 08:28:24;;;;;;;;;30.00;24.00;;;;;;;;5139930;27;13510;-76
2022/02/18 08:30:50;;;;;;;;;31.67;25.00;;;;;;;;5139004;27;13220;-75
2022/02/18 08:33:15;;;;;;;;;27.00;23.33;;;;;;;;5140532;27;11049;-79
2022/02/18 08:35:40;;;;;;;;;21.67;19.00;;;;;;;;5140846;27;14422;-84
2022/02/18 08:38:06;;;;;;;;;22.00;19.67;;;;;;;;5141133;27;12469;-85
2022/02/18 08:40:32;;;;;;;;;22.00;21.33;;;;;;;;5122028;27;14700;-87
2022/02/18 08:42:58;;;;;;;;;28.67;21.33;;;;;;;;5141676;27;10309;-92
2022/02/18 08:45:23;;;;;;;;;31.67;25.33;;;;;;;;5142798;27;10482;-89
2022/02/18 08:47:49;;;;;;;;;18.00;15.00;;;;;;;;5140943;27;10390;-90
2022/02/18 08:50:14;;;;;;;;;21.67;21.00;;;;;;;;5141423;27;13564;-87
2022/02/18 08:52:39;;;;;;;;;23.33;22.33;;;;;;;;5140835;27;12363;-86
2022/02/18 08:55:06;;;;;;;;;24.67;21.33;;;;;;;;5140568;27;11786;-81
2022/02/18 08:57:31;;;;;;;;;25.33;22.67;;;;;;;;5141962;27;10417;-86
2022/02/18 08:59:57;;;;;;;;;25.33;24.67;;;;;;;;5140323;27;11390;-83
2022/02/18 09:02:24;;;;;;;;;26.67;22.00;;;;;;;;5132954;27;8846;-84
2022/02/18 09:04:50;;;;;;;;;28.67;26.00;;;;;;;;5149976;27;11639;-87
2022/02/18 09:07:15;;;;;;;;;22.33;22.33;;;;;;;;5151316;27;8778;-84
2022/02/18 09:09:41;;;;;;;;;33.00;30.33;;;;;;;;5149231;27;11952;-86
2022/02/18 09:12:06;;;;;;;;;37.00;31.00;;;;;;;;5131319;27;14678;-86
2022/02/18 09:14:31;;;;;;;;;39.00;32.33;;;;;;;;5148407;27;12170;-86
2022/02/18 09:16:57;;;;;;;;;31.33;28.00;;;;;;;;5150386;27;11885;-84
2022/02/18 09:19:22;;;;;;;;;36.00;36.00;;;;;;;;5149509;27;12751;-85
2022/02/18 09:21:47;;;;;;;;;27.67;27.67;;;;;;;;5150048;27;11968;-87
2022/02/18 09:24:14;;;;;;;;;30.00;27.67;;;;;;;;5130683;27;15037;-86
2022/02/18 09:26:39;;;;;;;;;32.33;29.67;;;;;;;;5034402;27;12339;-86
2022/02/18 09:29:05;;;;;;;;;35.67;33.00;;;;;;;;5090128;28;10350;-92
2022/02/18 09:31:30;;;;;;;;;34.67;29.00;;;;;;;;5092549;28;14072;-88
2022/02/18 09:33:55;;;;;;;;;38.33;32.33;;;;;;;;5087139;28;12773;-85
2022/02/18 09:36:21;;;;;;;;;35.33;30.33;;;;;;;;5086395;28;12525;-78
2022/02/18 09:38:46;;;;;;;;;31.33;31.33;;;;;;;;5078931;28;9477;-80
2022/02/18 09:41:12;;;;;;;;;38.00;34.33;;;;;;;;5077244;28;11867;-81
2022/02/18 09:43:40;;;;;;;;;34.67;33.33;;;;;;;;5079148;28;10366;-87
2022/02/18 09:46:06;;;;;;;;;41.33;36.00;;;;;;;;5085436;28;10421;-86
2022/02/18 09:48:32;;;;;;;;;33.67;30.33;;;;;;;;5087693;28;13892;-88
2022/02/18 09:50:58;;;;;;;;;37.33;33.33;;;;;;;;5085043;28;15497;-79
2022/02/18 09:53:25;;;;;;;;;38.00;33.33;;;;;;;;5053055;27;11547;-78
2022/02/18 09:55:50;;;;;;;;;35.00;34.33;;;;;;;;5087116;28;9019;-81
2022/02/18 09:58:22;;;;;;;;;35.33;25.33;;;;;;;;5086850;28;9568;-78
2022/02/18 10:00:47;;;;;;;;;35.67;34.00;;;;;;;;5085839;28;12696;-79
2022/02/18 10:03:13;;;;;;;;;35.00;35.00;;;;;;;;5086061;28;12244;-81
2022/02/18 10:05:38;;;;;;;;;34.33;32.67;;;;;;;;5087506;28;9677;-80
2022/02/18 10:08:04;;;;;;;;;38.00;35.33;;;;;;;;5087571;28;13412;-80
2022/02/18 10:10:29;;;;;;;;;36.33;32.67;;;;;;;;5087334;28;12520;-79
2022/02/18 10:12:55;;;;;;;;;35.33;33.33;;;;;;;;5087563;28;11583;-78
2022/02/18 10:15:21;;;;;;;;;40.67;36.33;;;;;;;;5085944;28;11559;-88
2022/02/18 10:17:47;;;;;;;;;39.00;35.00;;;;;;;;5087899;28;12629;-86
2022/02/18 10:20:12;;;;;;;;;37.67;36.00;;;;;;;;5084821;28;14727;-79
2022/02/18 10:22:37;;;;;;;;;39.67;37.33;;;;;;;;5087277;28;10614;-76
2022/02/18 10:25:06;;;;;;;;;43.33;36.67;;;;;;;;5085366;28;11448;-81
2022/02/18 10:27:49;;;;;;;;;39.33;33.67;;;;;;;;5077940;28;13318;-80
2022/02/18 10:30:30;;;;;;;;;33.33;32.00;;;;;;;;5078161;28;10513;-79
2022/02/18 10:32:56;;;;;;;;;35.00;33.00;;;;;;;;5077314;28;11692;-80
2022/02/18 10:35:35;;;;;;;;;34.67;33.33;;;;;;;;5078365;28;10794;-82
2022/02/18 10:38:00;;;;;;;;;32.00;27.67;;;;;;;;5093556;28;11618;-80
2022/02/18 10:40:26;;;;;;;;;35.00;31.33;;;;;;;;5098238;28;12542;-81
2022/02/18 10:42:53;;;;;;;;;33.50;33.50;;;;;;;;5098619;28;12414;-82
2022/02/18 10:45:19;;;;;;;;;32.00;28.00;;;;;;;;5098067;28;11536;-82
2022/02/18 10:47:46;;;;;;;;;32.00;27.00;;;;;;;;5096994;28;12540;-80
2022/02/18 10:50:20;;;;;;;;;32.00;27.67;;;;;;;;5095810;28;11559;-80
2022/02/18 10:53:08;;;;;;;;;33.33;32.67;;;;;;;;5084486;28;11553;-81
2022/02/18 10:55:54;;;;;;;;;37.00;32.75;;;;;;;;5072584;28;12187;-84
2022/02/18 10:58:23;;;;;;;;;32.00;31.25;;;;;;;;5069510;28;11604;-83
2022/02/18 11:01:15;;;;;;;;;34.50;32.50;;;;;;;;5078087;28;11522;-84
2022/02/18 11:03:40;;;;;;;;;31.00;31.00;;;;;;;;5075078;28;12178;-83
2022/02/18 11:06:10;;;;;;;;;36.50;32.00;;;;;;;;5078568;28;11683;-84
2022/02/18 11:08:36;;;;;;;;;35.33;32.33;;;;;;;;5076808;28;11780;-83
2022/02/18 11:11:11;;;;;;;;;34.00;32.67;;;;;;;;5078465;28;11574;-84
2022/02/18 11:13:40;;;;;;;;;33.75;32.25;;;;;;;;5078633;28;11758;-84
2022/02/18 11:16:05;;;;;;;;;34.50;30.25;;;;;;;;5076783;28;11615;-84
2022/02/18 11:18:31;;;;;;;;;42.33;35.33;;;;;;;;5076948;28;11562;-84
2022/02/18 11:20:57;;;;;;;;;39.67;37.33;;;;;;;;5077623;28;12214;-85
2022/02/18 11:23:22;;;;;;;;;35.25;31.00;;;;;;;;5077840;28;12269;-78
2022/02/18 11:25:47;;;;;;;;;39.75;34.00;;;;;;;;5084075;28;11919;-80
2022/02/18 11:28:13;;;;;;;;;34.50;33.25;;;;;;;;5093559;28;9518;-80
2022/02/18 11:30:43;;;;;;;;;43.33;37.00;;;;;;;;5097023;28;11887;-80
2022/02/18 11:33:21;;;;;;;;;36.00;33.50;;;;;;;;5094550;28;13607;-85
2022/02/18 11:35:58;;;;;;;;;37.00;31.50;;;;;;;;5084839;28;13384;-81
2022/02/18 11:38:32;;;;;;;;;37.50;35.00;;;;;;;;5093849;28;11559;-80
2022/02/18 11:41:06;;;;;;;;;35.25;31.25;;;;;;;;5077808;28;11867;-81
2022/02/18 11:43:42;;;;;;;;;34.00;30.50;;;;;;;;5086813;28;11538;-86
2022/02/18 11:46:08;;;;;;;;;37.75;33.50;;;;;;;;5088418;28;12226;-82
2022/02/18 11:48:40;;;;;;;;;38.67;35.33;;;;;;;;5090343;28;11646;-83
2022/02/18 11:51:10;;;;;;;;;40.75;35.00;;;;;;;;5086911;28;11509;-79
2022/02/18 11:53:39;;;;;;;;;39.00;35.75;;;;;;;;5086960;28;16299;-80
2022/02/18 11:56:05;;;;;;;;;35.50;34.25;;;;;;;;5087538;28;13471;-86
2022/02/18 11:58:46;;;;;;;;;31.50;30.75;;;;;;;;5090503;28;11509;-85
2022/02/18 12:01:12;;;;;;;;;33.75;30.25;;;;;;;;5090081;28;10452;-84
2022/02/18 12:03:37;;;;;;;;;36.75;32.75;;;;;;;;5089500;28;11547;-80
2022/02/18 12:06:10;;;;;;;;;34.75;32.50;;;;;;;;5097048;28;10639;-79
2022/02/18 12:08:39;;;;;;;;;32.00;30.75;;;;;;;;5097933;28;12634;-82
2022/02/18 12:11:09;;;;;;;;;31.25;29.75;;;;;;;;5089851;28;13729;-81
2022/02/18 12:13:50;;;;;;;;;32.75;32.00;;;;;;;;5090186;28;12072;-86
2022/02/18 12:16:16;;;;;;;;;36.50;31.75;;;;;;;;5093757;28;12288;-86
2022/02/18 12:18:44;;;;;;;;;36.75;33.25;;;;;;;;5096923;28;11581;-83
2022/02/18 12:21:11;;;;;;;;;30.25;29.25;;;;;;;;5089874;28;9668;-85
2022/02/18 12:23:42;;;;;;;;;31.00;29.75;;;;;;;;5081741;28;11547;-86
2022/02/18 12:26:16;;;;;;;;;31.25;30.00;;;;;;;;5096367;28;11678;-84
2022/02/18 12:28:41;;;;;;;;;36.75;33.50;;;;;;;;5087876;28;12446;-84
2022/02/18 12:31:09;;;;;;;;;28.75;24.00;;;;;;;;5093916;28;11603;-82
2022/02/18 12:33:35;;;;;;;;;31.75;26.00;;;;;;;;5095676;28;13553;-83
2022/02/18 12:36:05;;;;;;;;;35.25;31.00;;;;;;;;5099925;28;11627;-83
2022/02/18 12:38:30;;;;;;;;;29.50;28.25;;;;;;;;5099742;28;11520;-82
2022/02/18 12:41:03;;;;;;;;;36.25;29.50;;;;;;;;5099671;28;13290;-84
2022/02/18 12:43:28;;;;;;;;;31.75;30.25;;;;;;;;5099089;28;13367;-84
2022/02/18 12:45:55;;;;;;;;;36.75;35.50;;;;;;;;5095785;28;12952;-85
2022/02/18 12:48:36;;;;;;;;;31.25;30.25;;;;;;;;5099836;28;11464;-85
2022/02/18 12:51:08;;;;;;;;;33.25;32.00;;;;;;;;5097887;28;11611;-85
2022/02/18 12:53:34;;;;;;;;;34.25;33.00;;;;;;;;5098872;28;12279;-87
2022/02/18 12:55:59;;;;;;;;;34.25;31.75;;;;;;;;5097512;28;11556;-85
2022/02/18 12:58:24;;;;;;;;;36.50;33.75;;;;;;;;5100066;28;8865;-88
2022/02/18 13:00:50;;;;;;;;;37.50;34.00;;;;;;;;5100029;28;10545;-84
2022/02/18 13:03:15;;;;;;;;;36.00;32.25;;;;;;;;5099520;28;11848;-88
2022/02/18 13:05:40;;;;;;;;;36.75;32.00;;;;;;;;5099422;28;11617;-84
2022/02/18 13:08:16;;;;;;;;;33.50;31.75;;;;;;;;5099539;28;8809;-84
2022/02/18 13:13:13;;;;;;;;;35.00;33.25;;;;;;;;5215873;27;77933;-82
2022/02/18 13:15:39;;;;;;;;;36.50;32.00;;;;;;;;5198204;27;22580;-80
2022/02/18 13:18:06;;;;;;;;;34.75;34.00;;;;;;;;5197527;27;11812;-77
2022/02/18 13:20:34;;;;;;;;;32.50;31.75;;;;;;;;5190055;27;11606;-80
2022/02/18 13:23:02;;;;;;;;;38.50;32.25;;;;;;;;5187289;27;11618;-81
2022/02/18 13:25:30;;;;;;;;;39.75;32.50;;;;;;;;5187788;27;11558;-81
2022/02/18 13:27:57;;;;;;;;;34.00;30.25;;;;;;;;5164873;27;13298;-81
2022/02/18 13:30:23;;;;;;;;;39.75;34.50;;;;;;;;5183838;27;11513;-81
2022/02/18 13:33:03;;;;;;;;;37.50;33.50;;;;;;;;5186693;27;12133;-79
2022/02/18 13:35:29;;;;;;;;;33.75;31.50;;;;;;;;5167924;27;11514;-80
2022/02/18 13:37:54;;;;;;;;;33.00;30.50;;;;;;;;5184427;27;11509;-80
2022/02/18 13:40:20;;;;;;;;;34.50;32.50;;;;;;;;5184877;27;9522;-79
2022/02/18 13:42:52;;;;;;;;;33.50;30.00;;;;;;;;5184439;27;11528;-80
2022/02/18 13:45:18;;;;;;;;;36.00;33.75;;;;;;;;5184731;27;11635;-79
2022/02/18 13:47:44;;;;;;;;;38.75;33.50;;;;;;;;5184877;27;11615;-79
2022/02/18 13:50:09;;;;;;;;;41.25;34.50;;;;;;;;5186605;27;11394;-80
2022/02/18 13:52:35;;;;;;;;;40.00;35.50;;;;;;;;5165450;27;11942;-79
2022/02/18 13:55:00;;;;;;;;;32.25;29.75;;;;;;;;5187361;27;10612;-78
2022/02/18 13:57:33;;;;;;;;;31.25;28.50;;;;;;;;5187327;27;13881;-80
2022/02/18 13:59:58;;;;;;;;;33.75;31.50;;;;;;;;5186414;27;11665;-81
2022/02/18 14:02:23;;;;;;;;;35.00;28.00;;;;;;;;5184929;27;11582;-80
2022/02/18 14:04:50;;;;;;;;;38.50;33.75;;;;;;;;5185981;27;12426;-80
2022/02/18 14:07:19;;;;;;;;;30.25;25.25;;;;;;;;5184497;27;12322;-80
2022/02/18 14:09:44;;;;;;;;;32.25;32.25;;;;;;;;5184337;27;11702;-81
2022/02/18 14:12:10;;;;;;;;;38.25;34.50;;;;;;;;5185745;27;11559;-80
2022/02/18 14:14:36;;;;;;;;;31.00;29.25;;;;;;;;5183880;27;11403;-84
2022/02/18 14:17:02;;;;;;;;;33.50;33.00;;;;;;;;5184634;27;12346;-77